Time;durP1;ratioP1;P1;durP2;ratioP2;P2;SDS_P1;SDS_P2;PMS_P1;PMS_P2;Temp;Humidity;BMP_temperature;BMP_pressure;BME280_temperature;BME280_humidity;BME280_pressure;Samples;Min_cycle;Max_cycle;Signal;HPM_P1;HPM_P2
2022/01/04 00:02:24;;;;;;;17.60;8.38;;;;;;;;;;5110047;28;20059;-67
2022/01/04 00:04:51;;;;;;;27.77;9.23;;;;;;;;;;5119342;27;20093;-66
2022/01/04 00:07:17;;;;;;;24.45;9.57;;;;;;;;;;5109124;28;20184;-66
2022/01/04 00:09:45;;;;;;;20.55;8.10;;;;;;;;;;5109850;28;20060;-66
2022/01/04 00:14:56;;;;;;;26.73;9.02;;;;;;;;;;5119858;27;20066;-66
2022/01/04 00:17:22;;;;;;;21.60;8.20;;;;;;;;;;5130856;27;20040;-66
2022/01/04 00:19:49;;;;;;;21.70;8.57;;;;;;;;;;5130001;27;20086;-66
2022/01/04 00:22:15;;;;;;;25.10;9.80;;;;;;;;;;5128027;27;20584;-66
2022/01/04 00:24:41;;;;;;;27.35;9.45;;;;;;;;;;5117861;27;20058;-66
2022/01/04 00:27:07;;;;;;;24.85;8.65;;;;;;;;;;5122282;27;20049;-66
2022/01/04 00:29:34;;;;;;;25.60;9.60;;;;;;;;;;5109412;28;20062;-66
2022/01/04 00:32:01;;;;;;;25.60;8.57;;;;;;;;;;5108328;27;20051;-66
2022/01/04 00:34:27;;;;;;;22.23;9.45;;;;;;;;;;5128745;27;20054;-66
2022/01/04 00:36:54;;;;;;;22.77;9.00;;;;;;;;;;5130201;27;20138;-66
2022/01/04 00:39:20;;;;;;;24.33;9.30;;;;;;;;;;5129374;27;20044;-66
2022/01/04 00:41:46;;;;;;;25.95;9.88;;;;;;;;;;5129246;27;20052;-66
2022/01/04 00:44:13;;;;;;;24.23;9.60;;;;;;;;;;5127991;27;20091;-66
2022/01/04 00:46:39;;;;;;;22.55;9.38;;;;;;;;;;5129526;27;20056;-66
2022/01/04 00:49:09;;;;;;;28.40;9.43;;;;;;;;;;5128549;27;20148;-66
2022/01/04 00:51:37;;;;;;;27.20;10.25;;;;;;;;;;5129688;27;20062;-66
2022/01/04 00:54:03;;;;;;;27.10;10.23;;;;;;;;;;5129782;27;20044;-66
2022/01/04 00:56:30;;;;;;;25.17;8.85;;;;;;;;;;5129433;27;20052;-66
2022/01/04 00:58:56;;;;;;;19.77;9.13;;;;;;;;;;5128899;27;20146;-66
2022/01/04 01:01:23;;;;;;;22.65;9.25;;;;;;;;;;5129782;27;20048;-66
2022/01/04 01:03:49;;;;;;;24.95;9.77;;;;;;;;;;5129370;27;20047;-66
2022/01/04 01:06:17;;;;;;;28.17;9.80;;;;;;;;;;5127915;27;20074;-66
2022/01/04 01:08:43;;;;;;;18.55;9.50;;;;;;;;;;5128647;27;20879;-66
2022/01/04 01:11:10;;;;;;;24.00;9.38;;;;;;;;;;5129349;27;20151;-66
2022/01/04 01:13:36;;;;;;;25.98;9.55;;;;;;;;;;5128941;27;20489;-66
2022/01/04 01:16:03;;;;;;;21.85;9.30;;;;;;;;;;5115667;27;20143;-66
2022/01/04 01:18:30;;;;;;;21.77;9.30;;;;;;;;;;5108866;28;20144;-66
2022/01/04 01:20:56;;;;;;;18.92;9.20;;;;;;;;;;5108783;28;20048;-66
2022/01/04 01:23:23;;;;;;;25.77;9.80;;;;;;;;;;5109810;28;20143;-66
2022/01/04 01:25:49;;;;;;;25.17;9.32;;;;;;;;;;5119753;27;20134;-66
2022/01/04 01:28:16;;;;;;;22.80;9.77;;;;;;;;;;5127583;27;20078;-67
2022/01/04 01:30:43;;;;;;;21.73;9.98;;;;;;;;;;5129232;27;20071;-67
2022/01/04 01:33:10;;;;;;;21.17;10.57;;;;;;;;;;5128655;27;20533;-66
2022/01/04 01:35:37;;;;;;;22.10;10.02;;;;;;;;;;5124651;27;20134;-66
2022/01/04 01:38:04;;;;;;;23.38;9.68;;;;;;;;;;5128290;27;20578;-65
2022/01/04 01:40:31;;;;;;;20.15;9.88;;;;;;;;;;5128748;27;20062;-66
2022/01/04 01:42:57;;;;;;;21.00;10.48;;;;;;;;;;5129009;27;20166;-66
2022/01/04 01:45:24;;;;;;;22.95;9.63;;;;;;;;;;5125930;27;20056;-66
2022/01/04 01:47:51;;;;;;;21.25;10.40;;;;;;;;;;5128956;27;20075;-66
2022/01/04 01:50:18;;;;;;;21.73;9.85;;;;;;;;;;5128234;27;20554;-66
2022/01/04 01:52:46;;;;;;;19.08;10.05;;;;;;;;;;5128163;27;20135;-66
2022/01/04 01:55:13;;;;;;;23.25;10.45;;;;;;;;;;5127065;27;20062;-66
2022/01/04 01:57:39;;;;;;;21.20;10.45;;;;;;;;;;5128424;27;20147;-66
2022/01/04 02:00:07;;;;;;;22.98;10.80;;;;;;;;;;5128482;27;20058;-68
2022/01/04 02:02:34;;;;;;;27.65;10.75;;;;;;;;;;5128456;27;20146;-66
2022/01/04 02:05:01;;;;;;;21.67;9.95;;;;;;;;;;5128275;27;20048;-67
2022/01/04 02:07:29;;;;;;;23.90;9.82;;;;;;;;;;5128930;27;20134;-67
2022/01/04 02:10:05;;;;;;;26.55;11.25;;;;;;;;;;5128458;27;20117;-67
2022/01/04 02:12:33;;;;;;;26.38;10.20;;;;;;;;;;5128833;27;20509;-66
2022/01/04 02:14:59;;;;;;;20.80;10.73;;;;;;;;;;5127654;27;20052;-65
2022/01/04 02:17:26;;;;;;;21.25;11.00;;;;;;;;;;5126848;27;20062;-66
2022/01/04 02:19:54;;;;;;;22.92;10.50;;;;;;;;;;5129109;27;20047;-66
2022/01/04 02:22:20;;;;;;;29.52;10.80;;;;;;;;;;5131237;27;20069;-68
2022/01/04 02:24:47;;;;;;;19.67;10.50;;;;;;;;;;5131613;27;20105;-66
2022/01/04 02:27:14;;;;;;;24.08;11.55;;;;;;;;;;5131419;27;20152;-66
2022/01/04 02:29:40;;;;;;;25.08;11.00;;;;;;;;;;5131559;27;20052;-66
2022/01/04 02:32:07;;;;;;;23.25;11.18;;;;;;;;;;5131298;27;20058;-66
2022/01/04 02:34:33;;;;;;;20.27;11.20;;;;;;;;;;5131850;27;20150;-66
2022/01/04 02:37:00;;;;;;;21.08;10.55;;;;;;;;;;5130511;27;20648;-66
2022/01/04 02:39:26;;;;;;;23.15;11.15;;;;;;;;;;5131009;27;20043;-66
2022/01/04 02:41:53;;;;;;;22.65;10.70;;;;;;;;;;5130886;27;20646;-66
2022/01/04 02:44:19;;;;;;;21.10;11.52;;;;;;;;;;5131292;27;20509;-66
2022/01/04 02:46:45;;;;;;;25.85;11.43;;;;;;;;;;5129236;27;20054;-66
2022/01/04 02:49:12;;;;;;;20.60;10.98;;;;;;;;;;5131920;27;20505;-66
2022/01/04 02:51:38;;;;;;;24.42;10.63;;;;;;;;;;5131386;27;20139;-67
2022/01/04 02:54:05;;;;;;;20.58;10.35;;;;;;;;;;5131724;27;20052;-66
2022/01/04 02:56:31;;;;;;;20.58;10.68;;;;;;;;;;5130060;27;20059;-66
2022/01/04 02:59:03;;;;;;;23.77;11.00;;;;;;;;;;5130210;27;20044;-66
2022/01/04 03:01:30;;;;;;;23.88;11.52;;;;;;;;;;5131352;27;20083;-66
2022/01/04 03:03:57;;;;;;;21.75;10.48;;;;;;;;;;5130703;27;20058;-65
2022/01/04 03:06:23;;;;;;;20.08;10.75;;;;;;;;;;5129856;27;20100;-65
2022/01/04 03:08:50;;;;;;;19.25;12.10;;;;;;;;;;5131406;27;20523;-66
2022/01/04 03:11:17;;;;;;;20.23;11.70;;;;;;;;;;5130695;27;20054;-65
2022/01/04 03:13:43;;;;;;;28.40;12.07;;;;;;;;;;5123407;27;20169;-65
2022/01/04 03:16:09;;;;;;;22.77;12.30;;;;;;;;;;5111890;27;20425;-65
2022/01/04 03:18:45;;;;;;;19.08;12.18;;;;;;;;;;5110034;28;20135;-66
2022/01/04 03:21:12;;;;;;;22.35;11.55;;;;;;;;;;5110183;28;20048;-66
2022/01/04 03:23:38;;;;;;;23.50;12.55;;;;;;;;;;5111717;27;20048;-66
2022/01/04 03:26:04;;;;;;;23.40;12.23;;;;;;;;;;5119115;27;20146;-65
2022/01/04 03:28:31;;;;;;;27.00;12.55;;;;;;;;;;5128606;27;20083;-66
2022/01/04 03:30:58;;;;;;;27.45;12.93;;;;;;;;;;5130080;27;20135;-65
2022/01/04 03:33:24;;;;;;;21.40;12.57;;;;;;;;;;5131252;27;20052;-65
2022/01/04 03:35:50;;;;;;;21.42;13.10;;;;;;;;;;5130514;27;20051;-66
2022/01/04 03:38:17;;;;;;;28.63;13.60;;;;;;;;;;5130592;27;20050;-66
2022/01/04 03:40:43;;;;;;;21.35;12.52;;;;;;;;;;5131086;27;20066;-65
2022/01/04 03:43:10;;;;;;;22.55;12.55;;;;;;;;;;5130424;27;20575;-66
2022/01/04 03:45:36;;;;;;;22.08;12.93;;;;;;;;;;5129438;27;20510;-65
2022/01/04 03:48:03;;;;;;;32.88;13.05;;;;;;;;;;5130410;27;20429;-65
2022/01/04 03:50:29;;;;;;;26.35;13.55;;;;;;;;;;5114640;27;20052;-65
2022/01/04 03:52:55;;;;;;;24.55;13.43;;;;;;;;;;5110509;28;20079;-66
2022/01/04 03:55:21;;;;;;;24.33;12.50;;;;;;;;;;5109076;27;20506;-65
2022/01/04 03:57:48;;;;;;;22.85;14.27;;;;;;;;;;5117546;27;20058;-65
2022/01/04 04:00:14;;;;;;;22.58;13.18;;;;;;;;;;5130660;27;20150;-65
2022/01/04 04:02:41;;;;;;;22.48;12.68;;;;;;;;;;5130785;27;21002;-66
2022/01/04 04:05:07;;;;;;;24.52;13.63;;;;;;;;;;5130604;27;20051;-65
2022/01/04 04:07:34;;;;;;;28.08;13.73;;;;;;;;;;5129522;27;20494;-65
2022/01/04 04:10:00;;;;;;;32.15;14.43;;;;;;;;;;5129748;27;20047;-65
2022/01/04 04:12:26;;;;;;;26.00;13.45;;;;;;;;;;5130595;27;20079;-65
2022/01/04 04:14:53;;;;;;;26.55;13.57;;;;;;;;;;5110550;27;20090;-66
2022/01/04 04:17:19;;;;;;;25.75;13.98;;;;;;;;;;5122733;27;20051;-66
2022/01/04 04:19:45;;;;;;;22.25;13.35;;;;;;;;;;5111636;27;20082;-65
2022/01/04 04:22:12;;;;;;;24.77;13.20;;;;;;;;;;5108966;28;20048;-65
2022/01/04 04:24:38;;;;;;;28.92;14.02;;;;;;;;;;5109762;27;20154;-65
2022/01/04 04:27:05;;;;;;;26.58;13.27;;;;;;;;;;5120671;27;20055;-65
2022/01/04 04:29:32;;;;;;;27.42;13.30;;;;;;;;;;5128911;27;20505;-66
2022/01/04 04:31:59;;;;;;;23.10;13.02;;;;;;;;;;5130226;27;20055;-65
2022/01/04 04:34:25;;;;;;;25.08;13.07;;;;;;;;;;5130125;27;20052;-66
2022/01/04 04:36:52;;;;;;;28.65;14.10;;;;;;;;;;5129274;27;20059;-66
2022/01/04 04:39:18;;;;;;;26.23;14.43;;;;;;;;;;5129371;27;20060;-66
2022/01/04 04:41:44;;;;;;;21.92;12.57;;;;;;;;;;5130103;27;20044;-65
2022/01/04 04:44:11;;;;;;;27.98;13.00;;;;;;;;;;5127068;27;20051;-65
2022/01/04 04:46:37;;;;;;;23.27;13.15;;;;;;;;;;5124229;27;20048;-65
2022/01/04 04:49:05;;;;;;;28.20;12.43;;;;;;;;;;5108872;28;20103;-66
2022/01/04 04:51:31;;;;;;;22.63;12.70;;;;;;;;;;5110667;27;20056;-65
2022/01/04 04:53:57;;;;;;;22.88;13.40;;;;;;;;;;5129876;27;20497;-66
2022/01/04 04:56:24;;;;;;;22.23;12.50;;;;;;;;;;5128813;27;20087;-65
2022/01/04 04:58:50;;;;;;;21.67;12.48;;;;;;;;;;5129845;27;20048;-66
2022/01/04 05:01:16;;;;;;;22.98;11.73;;;;;;;;;;5129779;27;20055;-66
2022/01/04 05:03:43;;;;;;;24.70;12.32;;;;;;;;;;5129894;27;20047;-65
2022/01/04 05:06:09;;;;;;;28.23;13.13;;;;;;;;;;5129027;27;20056;-66
2022/01/04 05:08:36;;;;;;;25.95;12.43;;;;;;;;;;5129063;27;20047;-65
2022/01/04 05:11:02;;;;;;;24.55;12.00;;;;;;;;;;5128813;27;20073;-65
2022/01/04 05:13:29;;;;;;;22.67;12.45;;;;;;;;;;5129095;27;20066;-66
2022/01/04 05:15:56;;;;;;;23.25;11.95;;;;;;;;;;5127720;27;20058;-66
2022/01/04 05:18:22;;;;;;;21.38;12.00;;;;;;;;;;5110719;27;20113;-65
2022/01/04 05:20:48;;;;;;;33.53;13.48;;;;;;;;;;5109583;28;20071;-65
2022/01/04 05:23:15;;;;;;;21.75;11.80;;;;;;;;;;5113584;27;20497;-66
2022/01/04 05:25:41;;;;;;;24.08;12.50;;;;;;;;;;5129163;27;20178;-65
2022/01/04 05:28:07;;;;;;;21.92;12.70;;;;;;;;;;5129122;27;20059;-65
2022/01/04 05:30:34;;;;;;;25.98;11.50;;;;;;;;;;5128984;27;20062;-65
2022/01/04 05:33:00;;;;;;;20.90;11.32;;;;;;;;;;5128621;27;20134;-65
2022/01/04 05:35:27;;;;;;;21.50;11.45;;;;;;;;;;5128455;27;20098;-65
2022/01/04 05:37:54;;;;;;;18.63;11.35;;;;;;;;;;5128785;27;20054;-65
2022/01/04 05:40:20;;;;;;;21.77;12.27;;;;;;;;;;5129093;27;20056;-65
2022/01/04 05:42:46;;;;;;;32.40;12.50;;;;;;;;;;5128599;27;20139;-65
2022/01/04 05:45:13;;;;;;;26.27;11.57;;;;;;;;;;5128826;27;21380;-65
2022/01/04 05:47:39;;;;;;;25.30;12.52;;;;;;;;;;5127052;27;20472;-64
2022/01/04 05:50:06;;;;;;;26.17;13.88;;;;;;;;;;5128127;27;20044;-67
2022/01/04 05:52:32;;;;;;;31.55;13.90;;;;;;;;;;5129325;27;20056;-65
2022/01/04 05:54:59;;;;;;;25.40;13.95;;;;;;;;;;5125118;27;20052;-67
2022/01/04 05:57:25;;;;;;;25.42;13.32;;;;;;;;;;5111272;27;20502;-67
2022/01/04 05:59:52;;;;;;;29.58;15.07;;;;;;;;;;5112120;27;20044;-64
2022/01/04 06:02:18;;;;;;;28.48;14.73;;;;;;;;;;5112256;27;20072;-65
2022/01/04 06:04:44;;;;;;;24.90;14.48;;;;;;;;;;5114542;27;20051;-65
2022/01/04 06:07:11;;;;;;;32.03;15.45;;;;;;;;;;5131818;27;20134;-65
2022/01/04 06:09:43;;;;;;;30.42;15.23;;;;;;;;;;5131319;27;20126;-65
2022/01/04 06:14:52;;;;;;;24.20;14.55;;;;;;;;;;5131304;27;20147;-67
2022/01/04 06:17:25;;;;;;;28.80;15.32;;;;;;;;;;5131661;27;20090;-65
2022/01/04 06:19:53;;;;;;;26.38;15.63;;;;;;;;;;5129997;27;20055;-65
2022/01/04 06:22:20;;;;;;;33.65;14.77;;;;;;;;;;5131582;27;20051;-65
2022/01/04 06:24:46;;;;;;;28.27;14.00;;;;;;;;;;5131997;27;20055;-65
2022/01/04 06:27:12;;;;;;;26.90;15.05;;;;;;;;;;5130960;27;20621;-65
2022/01/04 06:29:39;;;;;;;38.58;15.15;;;;;;;;;;5132337;27;20051;-67
2022/01/04 06:32:06;;;;;;;27.30;14.88;;;;;;;;;;5130230;27;20091;-67
2022/01/04 06:34:34;;;;;;;28.23;15.50;;;;;;;;;;5132295;27;20058;-67
2022/01/04 06:37:00;;;;;;;38.33;15.02;;;;;;;;;;5131462;27;20047;-67
2022/01/04 06:39:27;;;;;;;30.75;14.50;;;;;;;;;;5131654;27;20051;-67
2022/01/04 06:41:53;;;;;;;30.67;14.90;;;;;;;;;;5130295;27;20519;-67
2022/01/04 06:44:19;;;;;;;26.20;14.15;;;;;;;;;;5131142;27;20062;-67
2022/01/04 06:46:46;;;;;;;28.95;14.77;;;;;;;;;;5131987;27;20058;-67
2022/01/04 06:49:13;;;;;;;29.48;12.38;;;;;;;;;;5130134;27;20128;-66
2022/01/04 06:51:40;;;;;;;22.15;12.85;;;;;;;;;;5130979;27;20146;-67
2022/01/04 06:54:08;;;;;;;25.80;13.82;;;;;;;;;;5131126;27;20594;-67
2022/01/04 06:56:35;;;;;;;24.53;13.80;;;;;;;;;;5131235;27;20531;-67
2022/01/04 06:59:01;;;;;;;23.48;12.40;;;;;;;;;;5123029;27;20059;-67
2022/01/04 07:01:28;;;;;;;26.88;13.60;;;;;;;;;;5124474;27;20071;-67
2022/01/04 07:03:55;;;;;;;23.90;13.63;;;;;;;;;;5113236;27;20146;-67
2022/01/04 07:06:21;;;;;;;23.13;12.60;;;;;;;;;;5130193;27;20059;-64
2022/01/04 07:08:48;;;;;;;25.13;12.98;;;;;;;;;;5129063;27;20493;-67
2022/01/04 07:11:15;;;;;;;22.70;12.98;;;;;;;;;;5129483;27;20056;-67
2022/01/04 07:13:41;;;;;;;21.48;12.88;;;;;;;;;;5131283;27;20127;-67
2022/01/04 07:16:08;;;;;;;22.40;12.80;;;;;;;;;;5112792;27;20492;-67
2022/01/04 07:18:35;;;;;;;23.02;13.30;;;;;;;;;;5130400;27;20054;-67
2022/01/04 07:21:01;;;;;;;21.50;13.18;;;;;;;;;;5130679;27;20499;-67
2022/01/04 07:23:27;;;;;;;22.17;13.18;;;;;;;;;;5131104;27;20888;-67
2022/01/04 07:25:54;;;;;;;23.83;13.82;;;;;;;;;;5131141;27;20527;-67
2022/01/04 07:28:21;;;;;;;25.77;14.30;;;;;;;;;;5130680;27;20113;-67
2022/01/04 07:30:48;;;;;;;24.33;14.68;;;;;;;;;;5130656;27;20060;-67
2022/01/04 07:33:16;;;;;;;30.10;15.55;;;;;;;;;;5131060;27;20094;-67
2022/01/04 07:35:43;;;;;;;;;;;;;;;;;;5130682;27;20043;-67
2022/01/04 07:38:09;;;;;;;26.25;14.80;;;;;;;;;;5130025;27;44725;-67
2022/01/04 07:40:36;;;;;;;29.90;15.40;;;;;;;;;;5129978;27;20139;-67
2022/01/04 07:43:02;;;;;;;26.60;14.88;;;;;;;;;;5129563;27;20054;-67
2022/01/04 07:45:29;;;;;;;25.67;14.88;;;;;;;;;;5130823;27;20516;-67
2022/01/04 07:47:56;;;;;;;29.20;15.13;;;;;;;;;;5131118;27;20059;-67
2022/01/04 07:50:23;;;;;;;31.33;15.73;;;;;;;;;;5128589;27;20052;-67
2022/01/04 07:52:50;;;;;;;27.42;14.55;;;;;;;;;;5117634;27;20047;-67
2022/01/04 07:55:16;;;;;;;30.35;16.10;;;;;;;;;;5130432;27;20505;-65
2022/01/04 07:57:44;;;;;;;26.70;14.75;;;;;;;;;;5130709;27;20054;-67
2022/01/04 08:00:11;;;;;;;35.10;16.20;;;;;;;;;;5124524;27;20051;-68
2022/01/04 08:02:40;;;;;;;28.02;14.68;;;;;;;;;;5117942;27;20056;-67
2022/01/04 08:05:06;;;;;;;;;;;;;;;;;;5129884;27;20059;-66
2022/01/04 08:07:33;;;;;;;30.08;14.98;;;;;;;;;;5129317;27;44950;-65
2022/01/04 08:09:59;;;;;;;26.92;15.20;;;;;;;;;;5130361;27;20051;-66
2022/01/04 08:12:26;;;;;;;27.90;15.88;;;;;;;;;;5130177;27;20097;-65
2022/01/04 08:14:52;;;;;;;34.90;16.70;;;;;;;;;;5108945;27;20044;-65
2022/01/04 08:17:18;;;;;;;22.38;12.13;;;;;;;;;;5108986;27;20437;-65
2022/01/04 08:19:45;;;;;;;26.40;12.52;;;;;;;;;;5114878;27;20090;-65
2022/01/04 08:22:11;;;;;;;29.00;12.82;;;;;;;;;;5119978;27;20052;-66
2022/01/04 08:24:38;;;;;;;22.90;12.23;;;;;;;;;;5108232;28;20095;-65
2022/01/04 08:27:04;;;;;;;21.50;11.07;;;;;;;;;;5115609;27;20473;-65
2022/01/04 08:29:31;;;;;;;20.88;9.63;;;;;;;;;;5117646;27;20052;-66
2022/01/04 08:31:59;;;;;;;17.70;9.40;;;;;;;;;;5129261;27;20048;-64
2022/01/04 08:34:25;;;;;;;17.77;9.30;;;;;;;;;;5130546;27;20059;-65
2022/01/04 08:36:52;;;;;;;17.85;9.73;;;;;;;;;;5128857;27;20047;-65
2022/01/04 08:39:20;;;;;;;20.42;10.80;;;;;;;;;;5129565;27;20500;-65
2022/01/04 08:41:46;;;;;;;23.92;11.20;;;;;;;;;;5115616;27;20520;-65
2022/01/04 08:44:13;;;;;;;23.58;12.43;;;;;;;;;;5109454;27;20060;-65
2022/01/04 08:46:39;;;;;;;26.33;13.93;;;;;;;;;;5120003;27;20433;-65
2022/01/04 08:49:09;;;;;;;27.60;15.25;;;;;;;;;;5108204;28;20083;-65
2022/01/04 08:51:36;;;;;;;27.83;15.68;;;;;;;;;;5124486;27;20052;-66
2022/01/04 08:54:03;;;;;;;28.85;15.52;;;;;;;;;;5129793;27;20131;-66
2022/01/04 08:56:29;;;;;;;31.63;16.00;;;;;;;;;;5119567;27;20055;-66
2022/01/04 08:58:56;;;;;;;30.65;16.05;;;;;;;;;;5123815;27;20476;-65
2022/01/04 09:01:22;;;;;;;31.58;16.35;;;;;;;;;;5120236;27;20054;-65
2022/01/04 09:03:49;;;;;;;33.97;16.42;;;;;;;;;;5121343;27;20110;-65
2022/01/04 09:06:15;;;;;;;34.65;16.73;;;;;;;;;;5124502;27;20136;-66
2022/01/04 09:08:42;;;;;;;33.92;16.50;;;;;;;;;;5110194;27;20058;-65
2022/01/04 09:11:09;;;;;;;36.80;17.65;;;;;;;;;;5110897;27;20524;-66
2022/01/04 09:13:42;;;;;;;31.77;17.15;;;;;;;;;;5128177;27;20150;-65
2022/01/04 09:18:48;;;;;;;30.60;15.70;;;;;;;;;;5109523;28;20056;-65
2022/01/04 09:21:23;;;;;;;32.40;16.90;;;;;;;;;;5122282;27;20048;-65
2022/01/04 09:23:50;;;;;;;39.10;16.83;;;;;;;;;;5126668;27;20139;-65
2022/01/04 09:26:17;;;;;;;35.10;17.60;;;;;;;;;;5120330;27;20052;-66
2022/01/04 09:28:44;;;;;;;28.58;15.85;;;;;;;;;;5123287;27;20058;-65
2022/01/04 09:31:11;;;;;;;35.25;16.67;;;;;;;;;;5124210;27;20506;-65
2022/01/04 09:33:38;;;;;;;33.78;16.40;;;;;;;;;;5121330;27;20071;-65
2022/01/04 09:36:24;;;;;;;32.45;16.80;;;;;;;;;;5120042;27;20134;-65
2022/01/04 09:38:52;;;;;;;30.88;16.27;;;;;;;;;;5126323;27;20437;-65
2022/01/04 09:41:18;;;;;;;32.80;15.70;;;;;;;;;;5127755;27;20047;-65
2022/01/04 09:43:44;;;;;;;37.55;16.70;;;;;;;;;;5113371;27;20526;-65
2022/01/04 09:46:10;;;;;;;29.15;15.23;;;;;;;;;;5107870;27;20040;-65
2022/01/04 09:48:37;;;;;;;28.35;13.65;;;;;;;;;;5107730;28;20071;-65
2022/01/04 09:51:03;;;;;;;26.23;13.27;;;;;;;;;;5114940;27;20067;-65
2022/01/04 09:53:30;;;;;;;27.48;14.18;;;;;;;;;;5127917;27;20046;-65
2022/01/04 09:55:56;;;;;;;31.25;15.13;;;;;;;;;;5111628;27;20059;-65
2022/01/04 09:58:24;;;;;;;32.35;14.05;;;;;;;;;;5110765;27;20273;-64
2022/01/04 10:00:51;;;;;;;29.67;14.13;;;;;;;;;;5119590;27;20052;-63
2022/01/04 10:03:25;;;;;;;31.25;13.20;;;;;;;;;;5117058;27;20064;-66
2022/01/04 10:06:07;;;;;;;27.90;13.75;;;;;;;;;;5110674;27;20129;-65
2022/01/04 10:08:47;;;;;;;27.05;13.82;;;;;;;;;;5107935;27;20048;-65
2022/01/04 10:11:14;;;;;;;26.05;14.52;;;;;;;;;;5121929;27;20062;-65
2022/01/04 10:13:40;;;;;;;28.13;13.73;;;;;;;;;;5110833;27;20081;-65
2022/01/04 10:16:16;;;;;;;27.65;14.68;;;;;;;;;;5111896;27;20055;-65
2022/01/04 10:18:46;;;;;;;29.35;14.07;;;;;;;;;;5128882;27;20054;-65
2022/01/04 10:21:13;;;;;;;31.75;14.52;;;;;;;;;;5128012;27;20048;-66
2022/01/04 10:23:45;;;;;;;25.65;13.38;;;;;;;;;;5112324;27;20055;-66
2022/01/04 10:26:11;;;;;;;28.50;14.25;;;;;;;;;;5114086;27;20101;-65
2022/01/04 10:28:40;;;;;;;31.38;14.32;;;;;;;;;;5122965;27;20051;-65
2022/01/04 10:31:06;;;;;;;;;;;;;;;;;;5107718;27;20498;-65
2022/01/04 10:33:34;;;;;;;24.17;11.48;;;;;;;;;;5120784;27;43715;-65
2022/01/04 10:36:05;;;;;;;26.90;11.30;;;;;;;;;;5109174;27;20109;-65
2022/01/04 10:38:33;;;;;;;20.67;11.48;;;;;;;;;;5121447;27;20056;-64
2022/01/04 10:41:00;;;;;;;26.70;11.90;;;;;;;;;;5121930;27;20074;-65
2022/01/04 10:43:31;;;;;;;23.53;10.40;;;;;;;;;;5123763;27;20056;-64
2022/01/04 10:45:58;;;;;;;19.35;8.98;;;;;;;;;;5124293;27;20275;-65
2022/01/04 10:48:27;;;;;;;25.63;9.40;;;;;;;;;;5117517;27;20052;-65
2022/01/04 10:50:55;;;;;;;27.40;8.70;;;;;;;;;;5120633;27;20060;-66
2022/01/04 10:53:26;;;;;;;23.30;8.85;;;;;;;;;;5112613;27;20051;-65
2022/01/04 10:56:13;;;;;;;24.27;8.27;;;;;;;;;;5111380;28;20051;-65
2022/01/04 10:58:44;;;;;;;22.00;7.78;;;;;;;;;;5117911;27;20081;-65
2022/01/04 11:01:11;;;;;;;26.95;7.07;;;;;;;;;;5129072;27;20143;-66
2022/01/04 11:03:41;;;;;;;25.58;6.38;;;;;;;;;;5117526;27;20052;-65
2022/01/04 11:06:10;;;;;;;23.45;7.05;;;;;;;;;;5116505;27;20055;-65
2022/01/04 11:08:37;;;;;;;18.27;5.60;;;;;;;;;;5114636;27;20510;-66
2022/01/04 11:11:03;;;;;;;25.95;5.72;;;;;;;;;;5118433;27;20113;-65
2022/01/04 11:13:30;;;;;;;16.20;5.32;;;;;;;;;;5125880;27;20105;-65
2022/01/04 11:15:57;;;;;;;21.40;3.97;;;;;;;;;;5131168;27;20048;-66
2022/01/04 11:18:23;;;;;;;14.60;3.13;;;;;;;;;;5124801;27;20062;-66
2022/01/04 11:20:50;;;;;;;7.65;1.90;;;;;;;;;;5110588;27;20044;-65
2022/01/04 11:23:20;;;;;;;7.15;2.20;;;;;;;;;;5126707;27;20053;-66
2022/01/04 11:25:47;;;;;;;7.25;1.50;;;;;;;;;;5116361;27;20052;-66
2022/01/04 11:28:14;;;;;;;8.13;1.30;;;;;;;;;;5128921;27;20752;-66
2022/01/04 11:31:00;;;;;;;5.22;1.30;;;;;;;;;;5126545;27;20063;-67
2022/01/04 11:33:28;;;;;;;6.05;1.30;;;;;;;;;;5124721;27;20055;-65
2022/01/04 11:35:55;;;;;;;5.90;1.30;;;;;;;;;;5125517;27;20051;-66
2022/01/04 11:38:32;;;;;;;7.65;1.70;;;;;;;;;;5119892;27;20472;-66
2022/01/04 11:40:59;;;;;;;9.70;1.75;;;;;;;;;;5110464;28;20056;-66
2022/01/04 11:43:31;;;;;;;6.95;1.88;;;;;;;;;;5113526;27;20490;-66
2022/01/04 11:45:57;;;;;;;4.07;1.30;;;;;;;;;;5128209;27;20055;-65
2022/01/04 11:48:27;;;;;;;6.15;1.33;;;;;;;;;;5121257;27;20048;-65
2022/01/04 11:50:54;;;;;;;7.35;1.80;;;;;;;;;;5119337;27;20456;-65
2022/01/04 11:53:22;;;;;;;2.47;1.15;;;;;;;;;;5129460;27;20407;-66
2022/01/04 11:55:50;;;;;;;6.28;1.48;;;;;;;;;;5129309;27;20561;-66
2022/01/04 11:58:18;;;;;;;4.67;1.40;;;;;;;;;;5129506;27;20135;-65
2022/01/04 12:00:45;;;;;;;6.93;1.63;;;;;;;;;;5124992;27;20052;-66
2022/01/04 12:03:14;;;;;;;7.97;1.40;;;;;;;;;;5118644;27;20052;-65
2022/01/04 12:06:05;;;;;;;7.93;1.40;;;;;;;;;;5120563;27;20071;-66
2022/01/04 12:08:35;;;;;;;4.65;1.52;;;;;;;;;;5129801;27;20043;-65
2022/01/04 12:11:25;;;;;;;8.00;1.60;;;;;;;;;;5125472;27;20052;-66
2022/01/04 12:13:52;;;;;;;4.63;1.20;;;;;;;;;;5113772;27;20467;-66
2022/01/04 12:16:32;;;;;;;4.72;1.10;;;;;;;;;;5125646;27;20047;-66
2022/01/04 12:18:59;;;;;;;3.65;0.95;;;;;;;;;;5115707;27;20056;-66
2022/01/04 12:21:26;;;;;;;4.95;1.00;;;;;;;;;;5110418;27;20548;-66
2022/01/04 12:23:54;;;;;;;7.07;1.17;;;;;;;;;;5111379;27;20052;-66
2022/01/04 12:26:21;;;;;;;5.32;0.85;;;;;;;;;;5124027;27;20274;-66
2022/01/04 12:29:00;;;;;;;3.85;0.80;;;;;;;;;;5118595;27;20058;-66
2022/01/04 12:31:27;;;;;;;2.92;0.80;;;;;;;;;;5128786;27;20524;-66
2022/01/04 12:34:01;;;;;;;6.35;1.33;;;;;;;;;;5126048;27;20113;-66
2022/01/04 12:36:28;;;;;;;4.55;1.25;;;;;;;;;;5125954;27;20505;-66
2022/01/04 12:38:55;;;;;;;4.10;1.50;;;;;;;;;;5115121;27;20056;-66
2022/01/04 12:41:22;;;;;;;4.55;0.80;;;;;;;;;;5113365;27;20052;-66
2022/01/04 12:43:50;;;;;;;1.75;0.63;;;;;;;;;;5122857;27;20058;-66
2022/01/04 12:46:33;;;;;;;2.55;0.80;;;;;;;;;;5116820;27;20220;-66
2022/01/04 12:49:01;;;;;;;3.75;2.15;;;;;;;;;;5114215;27;20516;-67
2022/01/04 12:51:32;;;;;;;3.60;0.90;;;;;;;;;;5117206;27;20481;-65
2022/01/04 12:54:00;;;;;;;3.63;0.82;;;;;;;;;;5120647;27;20501;-64
2022/01/04 12:56:26;;;;;;;2.25;0.77;;;;;;;;;;5115215;27;20532;-64
2022/01/04 12:58:54;;;;;;;1.60;0.80;;;;;;;;;;5108234;27;20060;-64
2022/01/04 13:01:23;;;;;;;4.20;1.00;;;;;;;;;;5119835;27;20078;-65
2022/01/04 13:03:50;;;;;;;3.67;0.60;;;;;;;;;;5119825;27;20079;-64
2022/01/04 13:06:16;;;;;;;6.07;1.02;;;;;;;;;;5128583;27;20677;-64
2022/01/04 13:08:51;;;;;;;8.00;1.35;;;;;;;;;;5130351;27;20052;-64
2022/01/04 13:11:18;;;;;;;8.23;1.20;;;;;;;;;;5128234;27;20706;-65
2022/01/04 13:13:54;;;;;;;8.30;1.13;;;;;;;;;;5129298;27;20085;-66
2022/01/04 13:16:25;;;;;;;8.20;1.08;;;;;;;;;;5128904;27;20082;-65
2022/01/04 13:18:52;;;;;;;7.18;1.40;;;;;;;;;;5127151;27;20052;-64
2022/01/04 13:21:24;;;;;;;4.80;1.00;;;;;;;;;;5118835;27;20052;-64
2022/01/04 13:23:51;;;;;;;7.57;1.30;;;;;;;;;;5123659;27;20083;-67
2022/01/04 13:26:24;;;;;;;8.05;1.38;;;;;;;;;;5126022;27;20059;-63
2022/01/04 13:28:54;;;;;;;5.95;0.88;;;;;;;;;;5127564;27;21347;-63
2022/01/04 13:31:20;;;;;;;9.98;0.90;;;;;;;;;;5116716;27;20050;-64
2022/01/04 13:33:47;;;;;;;11.50;0.90;;;;;;;;;;5128107;27;20056;-64
2022/01/04 13:36:13;;;;;;;5.88;1.10;;;;;;;;;;5121894;27;20079;-64
2022/01/04 13:38:40;;;;;;;9.43;1.40;;;;;;;;;;5128172;27;20925;-63
2022/01/04 13:41:07;;;;;;;4.00;0.90;;;;;;;;;;5120520;27;20151;-64
2022/01/04 13:43:38;;;;;;;3.20;0.70;;;;;;;;;;5127470;27;20066;-64
2022/01/04 13:46:07;;;;;;;6.32;1.00;;;;;;;;;;5126253;27;20062;-64
2022/01/04 13:48:35;;;;;;;7.13;1.17;;;;;;;;;;5115210;27;20491;-64
2022/01/04 13:51:09;;;;;;;3.55;0.75;;;;;;;;;;5126841;27;20053;-64
2022/01/04 13:53:36;;;;;;;5.90;0.95;;;;;;;;;;5108885;27;20056;-64
2022/01/04 13:56:16;;;;;;;5.43;1.00;;;;;;;;;;5124133;27;20619;-64
2022/01/04 13:58:42;;;;;;;7.85;0.70;;;;;;;;;;5125765;27;20047;-64
2022/01/04 14:01:15;;;;;;;5.35;0.93;;;;;;;;;;5126740;27;20058;-64
2022/01/04 14:03:42;;;;;;;6.57;1.00;;;;;;;;;;5126425;27;20075;-64
2022/01/04 14:06:27;;;;;;;12.95;2.10;;;;;;;;;;5113639;27;20056;-64
2022/01/04 14:08:54;;;;;;;6.78;1.27;;;;;;;;;;5109111;27;20044;-64
2022/01/04 14:11:27;;;;;;;7.85;1.52;;;;;;;;;;5118734;27;20054;-65
2022/01/04 14:13:54;;;;;;;5.55;1.25;;;;;;;;;;5125148;27;20066;-64
2022/01/04 14:16:21;;;;;;;8.80;1.15;;;;;;;;;;5129659;27;20498;-65
2022/01/04 14:19:05;;;;;;;10.25;1.23;;;;;;;;;;5130237;27;20051;-65
2022/01/04 14:21:35;;;;;;;8.10;0.95;;;;;;;;;;5123891;27;20063;-65
2022/01/04 14:24:04;;;;;;;7.00;1.00;;;;;;;;;;5127962;27;20051;-65
2022/01/04 14:26:30;;;;;;;9.18;1.35;;;;;;;;;;5129703;27;20066;-65
2022/01/04 14:28:56;;;;;;;9.50;1.60;;;;;;;;;;5123248;27;20051;-65
2022/01/04 14:31:23;;;;;;;6.07;1.55;;;;;;;;;;5128534;27;20051;-65
2022/01/04 14:33:49;;;;;;;8.50;1.38;;;;;;;;;;5122039;27;20044;-65
2022/01/04 14:36:16;;;;;;;6.93;1.50;;;;;;;;;;5111164;27;20052;-65
2022/01/04 14:38:43;;;;;;;4.95;0.90;;;;;;;;;;5110761;27;20544;-65